Time;durP1;ratioP1;P1;durP2;ratioP2;P2;SDS_P1;SDS_P2;PMS_P1;PMS_P2;Temp;Humidity;BMP_temperature;BMP_pressure;BME280_temperature;BME280_humidity;BME280_pressure;Samples;Min_cycle;Max_cycle;Signal;HPM_P1;HPM_P2
2023/10/18 00:06:32;;;;;;;16.25;10.15;;;8.00;1.00;;;;;;20287987;29;20662;-41
2023/10/18 00:16:33;;;;;;;16.25;10.20;;;8.00;1.00;;;;;;20292555;29;20040;-41
2023/10/18 00:26:34;;;;;;;16.70;10.18;;;8.00;1.00;;;;;;20290547;29;20055;-41
2023/10/18 00:36:35;;;;;;;17.65;10.90;;;7.90;1.00;;;;;;20278357;29;20056;-40
2023/10/18 00:46:38;;;;;;;15.25;10.30;;;8.00;1.00;;;;;;20286727;29;20130;-41
2023/10/18 00:56:40;;;;;;;16.92;10.57;;;7.90;1.00;;;;;;20277187;29;20040;-41
2023/10/18 01:06:49;;;;;;;15.63;10.35;;;7.80;1.00;;;;;;20272999;29;20053;-40
2023/10/18 01:16:53;;;;;;;19.08;11.25;;;7.80;1.00;;;;;;20267693;29;20131;-41
2023/10/18 01:26:54;;;;;;;19.55;11.27;;;7.70;1.00;;;;;;20275377;29;20123;-40
2023/10/18 01:36:56;;;;;;;19.95;12.20;;;7.70;1.00;;;;;;20269734;29;20051;-40
2023/10/18 01:47:08;;;;;;;16.52;10.98;;;7.60;1.00;;;;;;20276022;29;20055;-40
2023/10/18 01:57:11;;;;;;;17.25;11.13;;;7.50;1.00;;;;;;20286249;29;20047;-40
2023/10/18 02:07:17;;;;;;;18.75;11.45;;;7.40;1.00;;;;;;20285681;29;20044;-40
2023/10/18 02:17:21;;;;;;;17.60;11.18;;;7.30;1.00;;;;;;20273559;29;20163;-40
2023/10/18 02:27:23;;;;;;;17.98;11.57;;;7.40;1.00;;;;;;20279766;29;20054;-40
2023/10/18 02:37:27;;;;;;;17.30;10.57;;;7.40;1.00;;;;;;20287383;29;20060;-41
2023/10/18 02:47:29;;;;;;;17.17;10.85;;;7.30;1.00;;;;;;20279220;29;20043;-40
2023/10/18 02:57:32;;;;;;;19.08;10.40;;;7.40;1.00;;;;;;20282491;29;20140;-40
2023/10/18 03:07:34;;;;;;;14.75;9.40;;;7.40;1.00;;;;;;20283117;29;20687;-40
2023/10/18 03:17:36;;;;;;;15.85;9.65;;;7.40;1.00;;;;;;20279095;29;20052;-40
2023/10/18 03:27:41;;;;;;;15.88;10.00;;;7.40;1.00;;;;;;20274260;29;20044;-41
2023/10/18 03:37:46;;;;;;;17.70;10.45;;;7.50;1.00;;;;;;20275675;29;20064;-40
2023/10/18 03:47:57;;;;;;;17.20;10.05;;;7.40;1.00;;;;;;20273005;29;20048;-40
2023/10/18 03:57:58;;;;;;;17.45;10.93;;;7.50;1.00;;;;;;20274263;29;20092;-40
2023/10/18 04:07:59;;;;;;;15.93;10.02;;;7.40;1.00;;;;;;20272795;29;20091;-40
2023/10/18 04:18:10;;;;;;;17.27;10.43;;;7.40;1.00;;;;;;20268231;29;20516;-40
2023/10/18 04:28:11;;;;;;;18.35;10.07;;;7.30;1.00;;;;;;20268882;29;20074;-40
2023/10/18 04:38:30;;;;;;;17.55;10.20;;;7.40;1.00;;;;;;20276407;29;20048;-40
2023/10/18 04:48:59;;;;;;;18.75;10.80;;;7.40;1.00;;;;;;20279480;29;20052;-41
2023/10/18 04:59:06;;;;;;;18.38;10.88;;;7.40;1.00;;;;;;20285654;29;20075;-40
2023/10/18 05:09:07;;;;;;;20.08;11.93;;;7.30;1.00;;;;;;20284645;29;20044;-40
2023/10/18 05:19:11;;;;;;;20.58;12.35;;;7.30;1.00;;;;;;20295826;29;20052;-40
2023/10/18 05:29:17;;;;;;;19.45;12.15;;;7.30;1.00;;;;;;20299215;29;20169;-40
2023/10/18 05:39:27;;;;;;;19.08;11.27;;;7.30;1.00;;;;;;20298221;29;20591;-40
2023/10/18 05:49:28;;;;;;;16.95;9.50;;;7.30;1.00;;;;;;20262033;29;20055;-41
2023/10/18 05:59:31;;;;;;;16.33;10.05;;;7.30;1.00;;;;;;20291921;29;20044;-41
2023/10/18 06:09:45;;;;;;;17.13;9.68;;;7.40;1.00;;;;;;20280208;29;20048;-41
2023/10/18 06:19:47;;;;;;;16.95;10.18;;;7.30;1.00;;;;;;20255327;29;20135;-41
2023/10/18 06:29:52;;;;;;;16.60;9.90;;;7.20;1.00;;;;;;20293873;29;20170;-41
2023/10/18 06:39:58;;;;;;;17.50;9.85;;;7.20;1.00;;;;;;20297361;29;20559;-40
2023/10/18 06:49:59;;;;;;;18.77;9.50;;;7.20;1.00;;;;;;20314343;29;20059;-40
2023/10/18 07:00:07;;;;;;;13.82;8.60;;;7.30;1.00;;;;;;20318840;29;20059;-40
2023/10/18 07:10:19;;;;;;;13.32;8.52;;;7.30;1.00;;;;;;20316376;29;20190;-41
2023/10/18 07:20:21;;;;;;;15.73;8.18;;;7.30;1.00;;;;;;20313217;29;20044;-41
2023/10/18 07:30:36;;;;;;;13.73;7.55;;;7.50;1.00;;;;;;20315234;29;20504;-41
2023/10/18 07:40:41;;;;;;;15.20;9.07;;;7.60;1.00;;;;;;20314117;29;20129;-40
2023/10/18 08:00:42;;;;;;;13.18;8.23;;;7.90;1.00;;;;;;20314490;29;20418;-40
2023/10/18 08:10:43;;;;;;;13.45;7.63;;;8.00;1.00;;;;;;20313124;29;20935;-41
2023/10/18 08:40:56;;;;;;;13.15;6.55;;;8.50;1.00;;;;;;20307521;29;20138;-41
2023/10/18 08:50:58;;;;;;;9.95;6.53;;;8.80;1.00;;;;;;20310165;29;20416;-41
2023/10/18 09:11:03;;;;;;;8.52;5.63;;;9.30;1.00;;;;;;20311868;29;20477;-41
2023/10/18 09:21:08;;;;;;;9.13;5.97;;;9.60;1.00;;;;;;20306951;29;20048;-41
2023/10/18 09:31:20;;;;;;;7.22;4.90;;;9.70;1.00;;;;;;20308814;29;20044;-41
2023/10/18 09:41:21;;;;;;;11.07;6.13;;;9.90;1.00;;;;;;20306537;29;20051;-41
2023/10/18 09:51:23;;;;;;;10.80;5.65;;;10.10;1.00;;;;;;20308785;29;20044;-41
2023/10/18 10:01:27;;;;;;;8.93;5.50;;;10.20;1.00;;;;;;20302104;29;20175;-41
2023/10/18 10:11:38;;;;;;;8.95;5.53;;;10.40;1.00;;;;;;20321632;29;20048;-41
2023/10/18 10:21:40;;;;;;;7.03;5.07;;;10.70;1.00;;;;;;20319904;29;20135;-41
2023/10/18 10:32:04;;;;;;;7.72;5.13;;;11.10;1.00;;;;;;20317773;29;20654;-41
2023/10/18 10:42:08;;;;;;;8.52;5.20;;;11.30;1.00;;;;;;20315313;29;20059;-41
2023/10/18 10:52:09;;;;;;;10.30;5.20;;;11.50;1.00;;;;;;20317594;29;20155;-41
2023/10/18 11:02:10;;;;;;;7.93;5.00;;;11.80;1.00;;;;;;20319405;29;20145;-41
2023/10/18 11:12:12;;;;;;;8.43;5.07;;;12.10;1.00;;;;;;20307933;29;20048;-41
2023/10/18 11:22:22;;;;;;;8.05;4.80;;;12.30;1.00;;;;;;20318127;29;20086;-41
2023/10/18 11:32:27;;;;;;;6.45;4.45;;;12.50;1.00;;;;;;20317154;29;20048;-41
2023/10/18 11:43:05;;;;;;;25.25;6.60;;;12.90;1.00;;;;;;20320690;29;20052;-41
2023/10/18 11:53:12;;;;;;;;;;;13.20;1.00;;;;;;20311209;29;20519;-41
2023/10/18 12:03:12;;;;;;;8.38;5.07;;;13.60;1.00;;;;;;20305558;29;20399;-42
2023/10/18 12:13:13;;;;;;;7.20;4.35;;;13.70;1.00;;;;;;20313052;29;20048;-41
2023/10/18 12:23:13;;;;;;;7.85;4.13;;;14.00;1.00;;;;;;20309611;29;20042;-41
2023/10/18 12:33:19;;;;;;;7.40;4.70;;;14.30;1.00;;;;;;20310826;29;20048;-41
2023/10/18 12:43:20;;;;;;;6.93;4.13;;;15.00;1.00;;;;;;20311721;29;20048;-41
2023/10/18 13:03:33;;;;;;;7.50;4.40;;;14.50;1.00;;;;;;20299160;29;20037;-41
2023/10/18 13:13:34;;;;;;;;;;;14.50;1.00;;;;;;20313538;29;20107;-41
2023/10/18 13:23:34;;;;;;;8.32;4.45;;;14.60;1.00;;;;;;20308434;29;19923;-41
2023/10/18 13:33:35;;;;;;;6.32;4.50;;;14.80;1.00;;;;;;20308751;29;20718;-41
2023/10/18 13:43:36;;;;;;;8.40;4.13;;;15.00;1.00;;;;;;20315062;29;20056;-41
2023/10/18 13:53:36;;;;;;;7.32;4.20;;;14.90;1.00;;;;;;20320238;29;20519;-41
2023/10/18 14:03:42;;;;;;;7.00;4.30;;;14.70;1.00;;;;;;20324167;29;20071;-41
2023/10/18 14:13:44;;;;;;;5.10;3.70;;;14.70;1.00;;;;;;20319348;29;20063;-41
2023/10/18 14:23:47;;;;;;;5.95;3.78;;;14.40;1.00;;;;;;20322606;29;20096;-41
2023/10/18 14:33:49;;;;;;;6.88;4.60;;;14.30;1.00;;;;;;20316159;29;20420;-41
2023/10/18 14:43:51;;;;;;;7.07;4.13;;;14.20;1.00;;;;;;20318246;29;20052;-41
2023/10/18 14:53:52;;;;;;;6.75;4.18;;;14.10;1.00;;;;;;20292177;29;20670;-41
2023/10/18 15:03:53;;;;;;;6.82;3.88;;;14.00;1.00;;;;;;20285468;29;20422;-41
2023/10/18 15:13:53;;;;;;;5.07;3.60;;;13.90;1.00;;;;;;20293106;29;20056;-41
2023/10/18 15:23:54;;;;;;;6.93;3.90;;;13.80;1.00;;;;;;20300301;29;20046;-41
2023/10/18 15:33:54;;;;;;;6.88;4.38;;;13.70;1.00;;;;;;20300755;29;20626;-41
2023/10/18 15:43:59;;;;;;;7.40;4.95;;;13.50;1.00;;;;;;20302638;29;20049;-41
2023/10/18 15:54:00;;;;;;;7.25;4.55;;;13.40;1.00;;;;;;20307741;29;20058;-41
2023/10/18 16:04:01;;;;;;;7.18;4.57;;;13.30;1.00;;;;;;20286131;29;20044;-41
2023/10/18 16:14:03;;;;;;;6.35;4.45;;;13.20;1.00;;;;;;20306733;29;20104;-41
2023/10/18 16:24:04;;;;;;;9.52;4.30;;;13.20;1.00;;;;;;20318470;29;20115;-41
2023/10/18 16:34:05;;;;;;;6.22;4.18;;;13.20;1.00;;;;;;20287043;29;20050;-41
2023/10/18 16:44:07;;;;;;;7.60;4.20;;;13.00;1.00;;;;;;20283975;29;20064;-41
2023/10/18 16:54:07;;;;;;;7.95;4.35;;;13.00;1.00;;;;;;20309359;29;20036;-41
2023/10/18 17:04:11;;;;;;;5.97;4.10;;;12.90;1.00;;;;;;20284839;29;20048;-41
2023/10/18 17:14:14;;;;;;;6.22;4.20;;;12.80;1.00;;;;;;20310874;29;20542;-41
2023/10/18 17:24:15;;;;;;;7.28;4.30;;;12.80;1.00;;;;;;20287760;29;20131;-41
2023/10/18 17:34:16;;;;;;;7.00;3.80;;;12.70;1.00;;;;;;20295045;29;20594;-41
2023/10/18 17:44:16;;;;;;;7.63;3.85;;;12.70;1.00;;;;;;20280851;29;20056;-41
2023/10/18 17:54:18;;;;;;;6.07;3.85;;;12.60;1.00;;;;;;20282778;29;20044;-41
2023/10/18 18:04:19;;;;;;;7.65;3.90;;;12.50;1.00;;;;;;20298093;29;20668;-41
2023/10/18 18:14:21;;;;;;;6.43;3.55;;;12.60;1.00;;;;;;20295968;29;20433;-41
2023/10/18 18:24:21;;;;;;;6.57;3.90;;;12.50;1.00;;;;;;20295346;29;20036;-41
2023/10/18 18:34:22;;;;;;;6.13;3.85;;;12.40;1.00;;;;;;20253686;29;20051;-41
2023/10/18 18:44:25;;;;;;;8.85;4.20;;;12.40;1.00;;;;;;20257486;29;20063;-41
2023/10/18 18:54:26;;;;;;;6.72;4.03;;;12.50;1.00;;;;;;20259157;29;20048;-41
2023/10/18 19:04:27;;;;;;;6.28;3.90;;;12.60;1.00;;;;;;20269168;29;20143;-41
2023/10/18 19:14:30;;;;;;;6.82;4.13;;;12.60;1.00;;;;;;20260680;29;20036;-41
2023/10/18 19:24:30;;;;;;;9.18;4.10;;;12.60;1.00;;;;;;20258491;29;20695;-41
2023/10/18 19:34:31;;;;;;;6.10;4.03;;;12.70;1.00;;;;;;20260527;29;20047;-41
2023/10/18 19:44:32;;;;;;;5.88;4.15;;;12.50;1.00;;;;;;20258094;29;20464;-41
2023/10/18 19:54:33;;;;;;;5.75;3.60;;;12.40;1.00;;;;;;20250700;29;20036;-41
2023/10/18 20:04:33;;;;;;;7.73;4.60;;;12.10;1.00;;;;;;20242932;29;20139;-41
2023/10/18 20:14:34;;;;;;;9.27;5.30;;;11.70;1.00;;;;;;20258172;29;20044;-41
2023/10/18 20:24:35;;;;;;;10.05;5.32;;;11.20;1.00;;;;;;20262724;29;20556;-41
2023/10/18 20:34:35;;;;;;;12.38;5.65;;;10.90;1.00;;;;;;20256669;29;20437;-40
2023/10/18 20:44:36;;;;;;;10.27;5.85;;;10.60;17.50;;;;;;20260435;29;20103;-40
2023/10/18 20:54:37;;;;;;;10.67;6.20;;;10.50;47.50;;;;;;20264253;29;20086;-40
2023/10/18 21:04:37;;;;;;;9.83;6.40;;;10.50;77.30;;;;;;20256783;29;20631;-40
2023/10/18 21:14:38;;;;;;;10.38;6.30;;;10.40;92.60;;;;;;20259316;29;20436;-40
2023/10/18 21:24:39;;;;;;;9.60;6.60;;;10.40;98.60;;;;;;20238389;29;20617;-40
2023/10/18 21:34:42;;;;;;;9.63;6.63;;;10.40;99.90;;;;;;20260420;29;20047;-40
2023/10/18 21:44:44;;;;;;;10.73;6.93;;;10.40;99.90;;;;;;20259700;29;20083;-41
2023/10/18 21:54:45;;;;;;;11.35;7.72;;;10.30;99.90;;;;;;20245778;29;20473;-41
2023/10/18 22:04:45;;;;;;;14.88;8.70;;;10.30;99.90;;;;;;20262253;23;20124;-95
2023/10/18 22:35:07;;;;;;;12.18;8.45;;;10.40;99.90;;;;;;12550694;23;20048;-96
